createdAt,value
2022-11-17T00:01:22.236Z,42.80
2022-11-17T00:03:49.317Z,43.18
2022-11-17T00:06:16.544Z,42.86
2022-11-17T00:08:43.508Z,43.12
2022-11-17T00:11:10.398Z,43.31
2022-11-17T00:13:56.076Z,43.20
2022-11-17T00:16:22.995Z,43.23
2022-11-17T00:19:08.663Z,42.96
2022-11-17T00:21:35.530Z,43.20
2022-11-17T00:24:02.352Z,43.13
2022-11-17T00:26:33.369Z,43.13
2022-11-17T00:29:06.807Z,43.28
2022-11-17T00:31:52.855Z,42.95
2022-11-17T00:34:21.158Z,43.26
2022-11-17T00:36:49.643Z,43.25
2022-11-17T00:39:17.326Z,43.06
2022-11-17T00:41:44.238Z,43.30
2022-11-17T00:44:11.394Z,43.01
2022-11-17T00:46:38.300Z,43.03
2022-11-17T00:49:05.996Z,43.05
2022-11-17T00:51:32.883Z,43.05
2022-11-17T00:53:59.921Z,42.96
2022-11-17T00:56:27.191Z,43.37
2022-11-17T00:58:54.182Z,43.04
2022-11-17T01:01:21.276Z,43.28
2022-11-17T01:03:48.307Z,43.05
2022-11-17T01:06:17.273Z,43.10
2022-11-17T01:08:44.307Z,43.32
2022-11-17T01:11:13.198Z,43.03
2022-11-17T01:13:40.617Z,43.08
2022-11-17T01:16:15.004Z,42.91
2022-11-17T01:18:42.092Z,43.40
2022-11-17T01:21:19.622Z,43.35
2022-11-17T01:23:47.283Z,43.09
2022-11-17T01:26:19.055Z,43.37
2022-11-17T01:28:45.950Z,43.13
2022-11-17T01:31:14.764Z,43.16
2022-11-17T01:33:41.741Z,43.33
2022-11-17T01:36:11.732Z,43.07
2022-11-17T01:38:38.614Z,43.25
2022-11-17T01:41:06.906Z,43.32
2022-11-17T01:43:39.767Z,43.28
2022-11-17T01:46:08.659Z,43.35
2022-11-17T01:48:35.491Z,43.47
2022-11-17T01:51:04.486Z,43.08
2022-11-17T01:53:33.852Z,43.13
2022-11-17T01:56:04.210Z,43.16
2022-11-17T01:58:35.299Z,43.43
2022-11-17T02:01:02.125Z,43.27
2022-11-17T02:03:30.920Z,43.09
2022-11-17T02:06:08.254Z,43.09
2022-11-17T02:08:36.188Z,43.34
2022-11-17T02:11:04.094Z,43.19
2022-11-17T02:13:30.949Z,43.13
2022-11-17T02:15:57.878Z,43.17
2022-11-17T02:18:24.743Z,43.12
2022-11-17T02:21:06.849Z,43.33
2022-11-17T02:23:39.796Z,42.98
2022-11-17T02:26:21.102Z,43.29
2022-11-17T02:28:52.946Z,43.27
2022-11-17T02:31:30.960Z,43.19
2022-11-17T02:34:19.462Z,43.21
2022-11-17T02:37:27.602Z,43.06
2022-11-17T02:40:03.220Z,43.16
2022-11-17T02:42:50.148Z,43.13
2022-11-17T02:45:19.354Z,43.24
2022-11-17T02:47:47.000Z,43.37
2022-11-17T02:50:14.140Z,43.03
2022-11-17T02:52:40.961Z,43.40
2022-11-17T02:55:09.723Z,43.22
2022-11-17T02:57:38.192Z,43.05
2022-11-17T03:00:06.768Z,43.09
2022-11-17T03:02:38.757Z,43.15
2022-11-17T03:05:24.255Z,43.39
2022-11-17T03:08:13.637Z,43.26
2022-11-17T03:10:43.116Z,43.33
2022-11-17T03:13:14.393Z,43.41
2022-11-17T03:15:44.120Z,42.93
2022-11-17T03:18:49.142Z,43.16
2022-11-17T03:21:41.719Z,42.63
2022-11-17T03:24:29.726Z,42.62
2022-11-17T03:27:17.109Z,42.02
2022-11-17T03:29:46.395Z,41.82
2022-11-17T03:32:13.214Z,42.06
2022-11-17T03:34:44.333Z,41.70
2022-11-17T03:37:12.365Z,41.54
2022-11-17T03:39:44.027Z,41.59
2022-11-17T03:42:21.257Z,41.07
2022-11-17T03:44:50.877Z,41.03
2022-11-17T03:47:22.888Z,40.71
2022-11-17T03:50:11.853Z,40.79
2022-11-17T03:52:38.704Z,40.60
2022-11-17T03:55:05.978Z,40.27
2022-11-17T03:57:38.832Z,40.00
2022-11-17T04:00:10.328Z,39.61
2022-11-17T04:02:48.027Z,39.85
2022-11-17T04:05:15.427Z,39.62
2022-11-17T04:07:43.868Z,39.80
2022-11-17T04:10:15.037Z,39.32
2022-11-17T04:13:00.737Z,39.39
2022-11-17T04:15:46.330Z,39.06
2022-11-17T04:18:13.551Z,38.74
2022-11-17T04:20:40.496Z,38.85
2022-11-17T04:23:09.179Z,38.95
2022-11-17T04:25:55.289Z,38.49
2022-11-17T04:28:37.250Z,38.27
2022-11-17T04:31:08.116Z,38.40
2022-11-17T04:33:35.543Z,38.21
2022-11-17T04:36:02.661Z,38.32
2022-11-17T04:38:29.611Z,37.99
2022-11-17T04:41:25.586Z,37.88
2022-11-17T04:43:52.630Z,38.04
2022-11-17T04:46:19.735Z,37.92
2022-11-17T04:48:47.621Z,37.90
2022-11-17T04:51:15.377Z,37.44
2022-11-17T04:53:42.777Z,37.61
2022-11-17T04:56:09.727Z,37.52
2022-11-17T04:58:36.644Z,37.31
2022-11-17T05:01:12.874Z,37.30
2022-11-17T05:03:40.817Z,37.14
2022-11-17T05:06:07.896Z,36.97
2022-11-17T05:08:38.436Z,37.05
2022-11-17T05:11:24.504Z,36.74
2022-11-17T05:13:51.645Z,37.02
2022-11-17T05:16:37.823Z,36.96
2022-11-17T05:19:05.897Z,36.72
2022-11-17T05:21:32.813Z,36.66
2022-11-17T05:23:59.679Z,36.58
2022-11-17T05:26:28.114Z,36.50
2022-11-17T05:28:56.572Z,36.44
2022-11-17T05:31:24.054Z,36.47
2022-11-17T05:33:51.045Z,36.36
2022-11-17T05:36:18.163Z,36.31
2022-11-17T05:38:46.391Z,36.24
2022-11-17T05:41:14.029Z,36.11
2022-11-17T05:43:40.893Z,36.03
2022-11-17T05:46:07.862Z,36.10
2022-11-17T05:48:34.752Z,36.21
2022-11-17T05:51:01.715Z,35.96
2022-11-17T05:53:28.953Z,35.99
2022-11-17T05:56:11.125Z,35.91
2022-11-17T05:58:38.483Z,35.68
2022-11-17T06:01:05.478Z,35.68
2022-11-17T06:03:35.083Z,35.85
2022-11-17T06:06:02.202Z,35.60
2022-11-17T06:08:31.997Z,35.57
2022-11-17T06:10:58.923Z,35.53
2022-11-17T06:13:29.040Z,35.35
2022-11-17T06:15:56.085Z,35.29
2022-11-17T06:18:25.213Z,35.28
2022-11-17T06:20:53.631Z,35.06
2022-11-17T06:23:20.898Z,35.27
2022-11-17T06:25:47.765Z,35.37
2022-11-17T06:28:15.750Z,35.06
2022-11-17T06:30:42.723Z,35.22
2022-11-17T06:33:10.187Z,34.97
2022-11-17T06:35:37.086Z,34.92
2022-11-17T06:38:03.959Z,35.05
2022-11-17T06:40:30.844Z,34.97
2022-11-17T06:43:03.802Z,35.17
2022-11-17T06:45:37.715Z,35.05
2022-11-17T06:48:05.388Z,34.96
2022-11-17T06:50:32.466Z,34.86
2022-11-17T06:53:00.361Z,34.84
2022-11-17T06:55:27.519Z,34.64
2022-11-17T06:58:07.936Z,34.80
2022-11-17T07:00:35.808Z,34.78
2022-11-17T07:03:04.215Z,34.70
2022-11-17T07:05:31.707Z,34.61
2022-11-17T07:07:59.304Z,34.32
2022-11-17T07:10:26.533Z,34.41
2022-11-17T07:12:53.448Z,34.47
2022-11-17T07:15:20.534Z,34.37
2022-11-17T07:17:47.421Z,34.29
2022-11-17T07:20:14.534Z,34.29
2022-11-17T07:22:44.418Z,34.34
2022-11-17T07:25:11.464Z,34.16
2022-11-17T07:27:38.633Z,34.15
2022-11-17T07:30:06.545Z,34.17
2022-11-17T07:32:36.339Z,34.21
2022-11-17T07:35:05.923Z,34.10
2022-11-17T07:37:33.667Z,33.85
2022-11-17T07:40:00.827Z,33.85
2022-11-17T07:42:27.769Z,33.85
2022-11-17T07:44:54.646Z,33.78
2022-11-17T07:47:21.519Z,33.84
2022-11-17T07:49:48.431Z,33.69
2022-11-17T07:52:15.380Z,33.70
2022-11-17T07:54:42.303Z,33.42
2022-11-17T07:57:09.481Z,33.69
2022-11-17T07:59:36.514Z,33.56
2022-11-17T08:02:03.368Z,33.43
2022-11-17T08:04:30.451Z,33.63
2022-11-17T08:06:57.419Z,33.38
2022-11-17T08:09:24.361Z,33.25
2022-11-17T08:11:51.974Z,33.51
2022-11-17T08:14:18.928Z,33.51
2022-11-17T08:16:45.776Z,33.26
2022-11-17T08:19:14.353Z,33.25
2022-11-17T08:21:41.541Z,33.17
2022-11-17T08:24:08.636Z,33.41
2022-11-17T08:26:35.641Z,33.23
2022-11-17T08:29:02.635Z,33.11
2022-11-17T08:31:29.508Z,33.39
2022-11-17T08:33:56.443Z,33.33
2022-11-17T08:36:23.374Z,33.25
2022-11-17T08:38:50.288Z,33.08
2022-11-17T08:41:17.237Z,33.20
2022-11-17T08:43:44.119Z,33.14
2022-11-17T08:46:14.145Z,33.01
2022-11-17T08:48:41.240Z,32.91
2022-11-17T08:51:08.534Z,32.91
2022-11-17T08:53:36.769Z,32.50
2022-11-17T08:56:07.900Z,32.60
2022-11-17T08:58:41.529Z,32.65
2022-11-17T09:01:11.945Z,32.49
2022-11-17T09:03:38.826Z,32.72
2022-11-17T09:06:05.989Z,32.65
2022-11-17T09:08:48.605Z,32.64
2022-11-17T09:11:16.729Z,32.60
2022-11-17T09:13:45.819Z,32.58
2022-11-17T09:16:13.005Z,32.45
2022-11-17T09:18:41.120Z,32.48
2022-11-17T09:21:13.414Z,32.52
2022-11-17T09:23:40.455Z,32.22
2022-11-17T09:26:12.147Z,32.23
2022-11-17T09:28:39.640Z,32.44
2022-11-17T09:31:11.410Z,32.48
2022-11-17T09:33:38.487Z,32.28
2022-11-17T09:36:07.461Z,32.52
2022-11-17T09:38:35.414Z,32.32
2022-11-17T09:41:15.877Z,32.50
2022-11-17T09:43:52.512Z,32.27
2022-11-17T09:46:28.783Z,32.30
2022-11-17T09:49:11.764Z,32.21
2022-11-17T09:51:38.984Z,32.38
2022-11-17T09:54:23.827Z,32.20
2022-11-17T09:56:50.761Z,32.00
2022-11-17T09:59:19.069Z,31.79
2022-11-17T10:01:45.991Z,32.04
2022-11-17T10:04:14.447Z,31.63
2022-11-17T10:06:41.725Z,32.04
2022-11-17T10:09:26.193Z,31.69
2022-11-17T10:11:54.194Z,31.89
2022-11-17T10:14:21.988Z,31.93
2022-11-17T10:16:58.577Z,31.86
2022-11-17T10:19:26.234Z,31.80
2022-11-17T10:22:02.114Z,31.77
2022-11-17T10:24:34.778Z,31.83
2022-11-17T10:27:03.051Z,31.66
2022-11-17T10:29:30.046Z,31.79
2022-11-17T10:31:58.083Z,31.73
2022-11-17T10:34:41.179Z,31.60
2022-11-17T10:37:14.695Z,31.86
2022-11-17T10:39:42.355Z,31.65
2022-11-17T10:42:18.037Z,31.75
2022-11-17T10:44:44.970Z,31.68
2022-11-17T10:47:44.211Z,31.58
2022-11-17T10:50:27.692Z,31.50
2022-11-17T10:52:55.710Z,31.48
2022-11-17T10:55:34.037Z,31.40
2022-11-17T10:58:02.806Z,31.63
2022-11-17T11:00:31.754Z,31.52
2022-11-17T11:03:07.321Z,31.56
2022-11-17T11:05:34.182Z,31.50
2022-11-17T11:08:25.294Z,31.69
2022-11-17T11:10:52.976Z,31.41
2022-11-17T11:13:25.906Z,31.38
2022-11-17T11:15:53.624Z,31.18
2022-11-17T11:18:20.709Z,31.08
2022-11-17T11:21:04.780Z,31.15
2022-11-17T11:23:37.802Z,31.11
2022-11-17T11:26:42.193Z,31.05
2022-11-17T11:29:24.901Z,31.00
2022-11-17T11:31:57.673Z,31.09
2022-11-17T11:34:47.417Z,31.16
2022-11-17T11:37:15.177Z,30.95
2022-11-17T11:40:00.464Z,30.82
2022-11-17T11:42:54.723Z,31.20
2022-11-17T11:45:34.883Z,31.04
2022-11-17T11:48:27.521Z,31.07
2022-11-17T11:50:58.558Z,31.10
2022-11-17T11:53:31.461Z,30.95
2022-11-17T11:56:16.428Z,31.03
2022-11-17T11:58:45.483Z,31.12
2022-11-17T12:01:12.351Z,31.20
2022-11-17T12:03:50.358Z,31.07
2022-11-17T12:06:40.287Z,31.00
2022-11-17T12:09:25.700Z,31.26
2022-11-17T12:12:01.826Z,31.08
2022-11-17T12:14:30.431Z,31.10
2022-11-17T12:17:26.109Z,31.23
2022-11-17T12:20:07.559Z,31.33
2022-11-17T12:22:37.480Z,31.01
2022-11-17T12:25:27.448Z,31.07
2022-11-17T12:27:54.713Z,31.09
2022-11-17T12:30:30.718Z,31.01
2022-11-17T12:32:58.467Z,31.09
2022-11-17T12:35:26.272Z,31.19
2022-11-17T12:38:31.205Z,30.94
2022-11-17T12:40:58.447Z,30.77
2022-11-17T12:43:26.124Z,30.89
2022-11-17T12:45:52.932Z,30.82
2022-11-17T12:48:39.108Z,30.77
2022-11-17T12:51:16.884Z,30.76
2022-11-17T12:54:11.957Z,30.90
2022-11-17T12:56:49.902Z,30.91
2022-11-17T12:59:30.163Z,30.80
2022-11-17T13:02:18.403Z,30.72
2022-11-17T13:04:49.553Z,30.72
2022-11-17T13:07:25.414Z,30.60
2022-11-17T13:09:59.329Z,30.72
2022-11-17T13:12:28.106Z,30.81
2022-11-17T13:15:05.097Z,30.99
2022-11-17T13:17:33.866Z,30.99
2022-11-17T13:20:21.521Z,30.66
2022-11-17T13:23:14.763Z,30.86
2022-11-17T13:25:41.679Z,30.84
2022-11-17T13:28:27.569Z,30.67
2022-11-17T13:30:54.426Z,30.61
2022-11-17T13:33:22.834Z,30.89
2022-11-17T13:35:51.380Z,30.66
2022-11-17T13:38:22.156Z,30.84
2022-11-17T13:40:52.652Z,30.67
2022-11-17T13:43:20.631Z,30.46
2022-11-17T13:45:48.176Z,30.61
2022-11-17T13:48:35.021Z,30.64
2022-11-17T13:51:19.845Z,30.41
2022-11-17T13:53:48.096Z,30.56
2022-11-17T13:56:26.959Z,30.31
2022-11-17T13:58:54.101Z,30.52
2022-11-17T14:01:27.940Z,30.49
2022-11-17T14:04:20.427Z,30.38
2022-11-17T14:06:55.211Z,30.50
2022-11-17T14:09:22.631Z,30.23
2022-11-17T14:11:50.450Z,30.19
2022-11-17T14:14:43.816Z,30.55
2022-11-17T14:17:29.234Z,30.37
2022-11-17T14:19:56.150Z,30.39
2022-11-17T14:22:30.949Z,30.23
2022-11-17T14:24:58.604Z,30.40
2022-11-17T14:27:31.942Z,30.50
2022-11-17T14:29:58.868Z,30.38
2022-11-17T14:32:25.707Z,30.15
2022-11-17T14:34:53.656Z,30.02
2022-11-17T14:37:20.526Z,29.97
2022-11-17T14:39:47.334Z,30.19
2022-11-17T14:42:14.359Z,29.93
2022-11-17T14:44:41.227Z,30.18
2022-11-17T14:47:08.065Z,30.05
2022-11-17T14:49:34.903Z,30.15
2022-11-17T14:52:02.782Z,30.07
2022-11-17T14:54:29.602Z,30.17
2022-11-17T14:56:56.467Z,30.39
2022-11-17T14:59:23.320Z,30.57
2022-11-17T15:01:50.158Z,30.64
2022-11-17T15:07:04.101Z,30.86
2022-11-17T15:09:31.112Z,31.05
2022-11-17T15:11:58.140Z,30.94
2022-11-17T15:14:25.092Z,31.00
2022-11-17T15:16:51.972Z,31.21
2022-11-17T15:19:18.897Z,31.20
2022-11-17T15:21:45.814Z,31.29
2022-11-17T15:24:12.928Z,31.48
2022-11-17T15:26:40.218Z,31.45
2022-11-17T15:29:07.082Z,31.49
2022-11-17T15:31:33.943Z,31.43
2022-11-17T15:34:01.136Z,31.44
2022-11-17T15:36:28.157Z,31.56
2022-11-17T15:38:55.018Z,31.77
2022-11-17T15:41:21.955Z,31.78
2022-11-17T15:43:48.846Z,31.78
2022-11-17T15:46:16.965Z,31.99
2022-11-17T15:48:45.079Z,32.00
2022-11-17T15:51:16.803Z,32.29
2022-11-17T15:53:44.484Z,32.47
2022-11-17T15:56:12.341Z,32.43
2022-11-17T15:58:40.004Z,32.62
2022-11-17T16:01:28.607Z,32.75
2022-11-17T16:04:02.515Z,32.59
2022-11-17T16:06:30.025Z,32.77
2022-11-17T16:08:57.663Z,32.99
2022-11-17T16:11:24.846Z,32.77
2022-11-17T16:13:53.804Z,32.90
2022-11-17T16:16:20.637Z,33.00
2022-11-17T16:18:47.486Z,32.96
2022-11-17T16:21:14.774Z,33.27
2022-11-17T16:23:54.792Z,33.18
2022-11-17T16:26:22.450Z,33.50
2022-11-17T16:28:49.353Z,33.25
2022-11-17T16:31:17.136Z,33.36
2022-11-17T16:33:50.938Z,33.65
2022-11-17T16:36:18.424Z,33.87
2022-11-17T16:38:59.699Z,33.83
2022-11-17T16:41:32.618Z,34.04
2022-11-17T16:43:59.981Z,33.96
2022-11-17T16:46:31.413Z,34.12
2022-11-17T16:49:02.761Z,33.80
2022-11-17T16:51:29.662Z,34.04
2022-11-17T16:53:58.439Z,34.29
2022-11-17T16:56:25.438Z,34.28
2022-11-17T16:58:52.428Z,34.34
2022-11-17T17:01:21.440Z,34.63
2022-11-17T17:03:48.378Z,34.69
2022-11-17T17:06:16.805Z,34.41
2022-11-17T17:08:43.681Z,34.70
2022-11-17T17:11:12.161Z,34.57
2022-11-17T17:13:39.206Z,34.88
2022-11-17T17:16:07.823Z,35.13
2022-11-17T17:18:34.940Z,35.52
2022-11-17T17:21:01.878Z,35.40
2022-11-17T17:23:28.807Z,35.37
2022-11-17T17:26:14.113Z,35.27
2022-11-17T17:28:41.056Z,35.46
2022-11-17T17:31:08.255Z,35.50
2022-11-17T17:33:35.729Z,35.59
2022-11-17T17:36:07.710Z,35.81
2022-11-17T17:38:34.668Z,36.04
2022-11-17T17:41:05.864Z,36.02
2022-11-17T17:43:33.138Z,35.73
2022-11-17T17:46:03.578Z,36.15
2022-11-17T17:48:31.247Z,35.85
2022-11-17T17:51:02.064Z,35.91
2022-11-17T17:53:28.919Z,35.66
2022-11-17T17:55:59.791Z,35.95
2022-11-17T17:58:26.642Z,35.51
2022-11-17T18:00:53.504Z,35.67
2022-11-17T18:03:20.458Z,35.60
2022-11-17T18:05:47.372Z,35.84
2022-11-17T18:08:14.259Z,35.77
2022-11-17T18:10:41.166Z,35.83
2022-11-17T18:13:10.833Z,36.23
2022-11-17T18:15:39.773Z,35.79
2022-11-17T18:18:06.850Z,36.28
2022-11-17T18:20:34.706Z,36.23
2022-11-17T18:23:02.183Z,36.20
2022-11-17T18:25:31.848Z,36.29
2022-11-17T18:27:58.745Z,35.98
2022-11-17T18:30:25.572Z,36.14
2022-11-17T18:32:52.479Z,36.36
2022-11-17T18:35:19.439Z,36.57
2022-11-17T18:37:46.274Z,36.50
2022-11-17T18:40:13.292Z,36.22
2022-11-17T18:42:40.098Z,36.46
2022-11-17T18:45:08.016Z,36.66
2022-11-17T18:47:34.927Z,36.76
2022-11-17T18:50:01.780Z,36.41
2022-11-17T18:52:31.384Z,36.92
2022-11-17T18:54:58.566Z,37.07
2022-11-17T18:57:25.396Z,36.64
2022-11-17T18:59:52.308Z,36.78
2022-11-17T19:02:19.198Z,36.65
2022-11-17T19:04:46.068Z,37.14
2022-11-17T19:07:12.967Z,37.09
2022-11-17T19:09:39.897Z,37.53
2022-11-17T19:12:08.891Z,37.49
2022-11-17T19:14:35.864Z,37.31
2022-11-17T19:17:02.747Z,37.26
2022-11-17T19:19:29.687Z,37.65
2022-11-17T19:21:56.616Z,37.10
2022-11-17T19:24:23.664Z,37.38
2022-11-17T19:26:50.592Z,37.53
2022-11-17T19:29:17.912Z,37.65
2022-11-17T19:31:45.719Z,37.62
2022-11-17T19:34:12.626Z,37.57
2022-11-17T19:36:39.618Z,37.42
2022-11-17T19:39:06.541Z,37.67
2022-11-17T19:41:35.009Z,37.28
2022-11-17T19:44:06.595Z,37.57
2022-11-17T19:46:33.637Z,37.89
2022-11-17T19:49:00.522Z,37.71
2022-11-17T19:51:31.803Z,37.70
2022-11-17T19:54:02.379Z,37.79
2022-11-17T19:56:29.498Z,37.93
2022-11-17T19:58:56.501Z,37.95
2022-11-17T20:01:28.642Z,38.19
2022-11-17T20:03:56.301Z,38.19
2022-11-17T20:06:27.233Z,38.08
2022-11-17T20:08:57.531Z,38.26
2022-11-17T20:11:26.003Z,38.30
2022-11-17T20:13:53.741Z,38.52
2022-11-17T20:16:22.192Z,38.58
2022-11-17T20:18:50.853Z,38.43
2022-11-17T20:21:18.107Z,38.78
2022-11-17T20:23:45.022Z,38.31
2022-11-17T20:26:19.687Z,38.33
2022-11-17T20:28:46.804Z,38.83
2022-11-17T20:31:24.433Z,39.21
2022-11-17T20:33:51.646Z,38.85
2022-11-17T20:36:19.712Z,38.96
2022-11-17T20:38:56.619Z,38.48
2022-11-17T20:41:23.716Z,38.70
2022-11-17T20:43:51.751Z,38.83
2022-11-17T20:46:18.733Z,38.88
2022-11-17T20:48:45.611Z,38.44
2022-11-17T20:51:14.233Z,38.47
2022-11-17T20:53:41.147Z,38.42
2022-11-17T20:56:09.202Z,38.76
2022-11-17T20:58:36.127Z,38.80
2022-11-17T21:01:21.810Z,38.85
2022-11-17T21:03:49.249Z,39.19
2022-11-17T21:06:16.428Z,38.90
2022-11-17T21:08:43.896Z,38.88
2022-11-17T21:11:35.036Z,38.99
2022-11-17T21:14:05.549Z,38.84
2022-11-17T21:16:32.752Z,39.55
2022-11-17T21:18:59.594Z,39.25
2022-11-17T21:21:26.520Z,39.40
2022-11-17T21:23:54.229Z,39.31
2022-11-17T21:26:22.817Z,39.16
2022-11-17T21:28:49.714Z,38.98
2022-11-17T21:31:18.270Z,39.09
2022-11-17T21:33:45.209Z,39.15
2022-11-17T21:36:13.525Z,39.01
2022-11-17T21:38:40.407Z,39.10
2022-11-17T21:41:11.125Z,39.86
2022-11-17T21:43:38.720Z,39.47
2022-11-17T21:46:07.083Z,39.36
2022-11-17T21:48:35.080Z,39.29
2022-11-17T21:51:02.313Z,39.33
2022-11-17T21:53:29.875Z,39.25
2022-11-17T21:56:01.351Z,39.15
2022-11-17T21:58:28.309Z,39.33
2022-11-17T22:00:55.276Z,39.41
2022-11-17T22:03:22.155Z,39.11
2022-11-17T22:05:51.985Z,39.96
2022-11-17T22:08:19.071Z,39.66
2022-11-17T22:10:45.921Z,39.87
2022-11-17T22:13:12.975Z,39.79
2022-11-17T22:15:39.814Z,39.61
2022-11-17T22:18:06.854Z,39.60
2022-11-17T22:20:33.762Z,39.44
2022-11-17T22:23:00.669Z,39.71
2022-11-17T22:25:44.900Z,40.23
2022-11-17T22:28:12.301Z,39.84
2022-11-17T22:30:39.413Z,39.69
2022-11-17T22:33:06.262Z,39.75
2022-11-17T22:35:33.180Z,39.94
2022-11-17T22:37:59.987Z,39.57
2022-11-17T22:40:26.805Z,39.44
2022-11-17T22:42:53.681Z,39.80
2022-11-17T22:45:20.508Z,39.72
2022-11-17T22:47:47.374Z,39.85
2022-11-17T22:50:14.231Z,39.69
2022-11-17T22:52:41.060Z,40.00
2022-11-17T22:55:08.270Z,40.06
2022-11-17T22:57:35.137Z,40.16
2022-11-17T23:00:01.982Z,40.11
2022-11-17T23:02:28.883Z,40.03
2022-11-17T23:04:55.756Z,40.00
2022-11-17T23:07:22.621Z,40.01
2022-11-17T23:09:49.467Z,39.81
2022-11-17T23:12:16.339Z,40.30
2022-11-17T23:14:43.167Z,40.09
2022-11-17T23:17:09.993Z,40.06
2022-11-17T23:19:36.841Z,40.18
2022-11-17T23:22:03.735Z,40.04
2022-11-17T23:24:30.730Z,40.04
2022-11-17T23:26:57.577Z,40.04
2022-11-17T23:29:24.388Z,40.08
2022-11-17T23:31:51.231Z,40.23
2022-11-17T23:34:18.180Z,40.09
2022-11-17T23:36:44.985Z,40.01
2022-11-17T23:39:11.807Z,40.03
2022-11-17T23:41:38.693Z,40.30
2022-11-17T23:44:05.648Z,40.45
2022-11-17T23:46:32.489Z,40.07
2022-11-17T23:48:59.372Z,40.58
2022-11-17T23:51:26.388Z,40.18
2022-11-17T23:53:53.267Z,40.60
2022-11-17T23:56:20.663Z,40.59
2022-11-17T23:58:47.757Z,40.67
